Terminal Aerodrome Forecast
Issued by NWS Tampa Bay Area, FL

Home | Current Version | Previous Version | Text Only | Print | Product List | Glossary On
Versions: 1 2 3 4 5 6 7 8 9 10 11 12 13
765
FTUS42 KTBW 242324
TAFSRQ
TAF
KSRQ 242324Z 2500/2524 25004KT P6SM VCTS BKN035CB
     FM250200 08004KT P6SM SCT040 SCT250
     FM250400 VRB03KT P6SM FEW250
     FM251500 08005KT P6SM FEW030 FEW250
     FM251800 28009KT P6SM SCT040 SCT250=

USA.gov is the U.S. government's official web portal to all federal, state and local government web resources and services.